createdAt,value
2018-09-21T00:00:22.874Z,99949.28
2018-09-21T00:00:53.988Z,99950.59
2018-09-21T00:01:25.140Z,99949.75
2018-09-21T00:01:56.343Z,99948.44
2018-09-21T00:02:27.466Z,99947.05
2018-09-21T00:02:58.584Z,99952.64
2018-09-21T00:03:29.725Z,99950.41
2018-09-21T00:04:00.952Z,99947.30
2018-09-21T00:04:32.047Z,99946.58
2018-09-21T00:05:03.153Z,99946.32
2018-09-21T00:05:34.304Z,99946.46
2018-09-21T00:06:05.418Z,99946.24
2018-09-21T00:06:36.548Z,99945.11
2018-09-21T00:07:07.656Z,99948.28
2018-09-21T00:07:38.814Z,99948.39
2018-09-21T00:08:09.937Z,99950.25
2018-09-21T00:08:41.094Z,99953.24
2018-09-21T00:09:12.227Z,99949.44
2018-09-21T00:09:43.352Z,99952.58
2018-09-21T00:10:14.500Z,99953.22
2018-09-21T00:10:45.598Z,99950.33
2018-09-21T00:11:16.705Z,99948.22
2018-09-21T00:11:47.876Z,99953.64
2018-09-21T00:12:19.051Z,99952.44
2018-09-21T00:12:50.146Z,99953.81
2018-09-21T00:13:21.281Z,99950.31
2018-09-21T00:13:52.499Z,99952.03
2018-09-21T00:14:23.693Z,99948.63
2018-09-21T00:14:54.795Z,99953.66
2018-09-21T00:15:25.970Z,99945.77
2018-09-21T00:15:57.081Z,99954.97
2018-09-21T00:16:28.196Z,99953.15
2018-09-21T00:16:59.304Z,99954.33
2018-09-21T00:17:30.435Z,99944.22
2018-09-21T00:18:01.525Z,99951.62
2018-09-21T00:18:32.633Z,99956.11
2018-09-21T00:19:03.770Z,99948.33
2018-09-21T00:19:34.900Z,99947.09
2018-09-21T00:20:06.059Z,99947.09
2018-09-21T00:20:37.151Z,99942.34
2018-09-21T00:21:08.314Z,99946.83
2018-09-21T00:21:39.545Z,99944.77
2018-09-21T00:22:10.674Z,99947.06
2018-09-21T00:22:41.780Z,99944.94
2018-09-21T00:23:12.925Z,99945.01
2018-09-21T00:23:44.033Z,99942.45
2018-09-21T00:24:15.200Z,99938.04
2018-09-21T00:24:46.363Z,99942.95
2018-09-21T00:25:17.481Z,99947.80
2018-09-21T00:25:48.639Z,99941.77
2018-09-21T00:26:19.748Z,99947.97
2018-09-21T00:26:50.908Z,99948.58
2018-09-21T00:27:22.024Z,99942.92
2018-09-21T00:27:53.168Z,99946.55
2018-09-21T00:28:24.294Z,99952.75
2018-09-21T00:28:55.401Z,99953.66
2018-09-21T00:29:26.519Z,99950.63
2018-09-21T00:29:57.737Z,99949.38
2018-09-21T00:30:28.912Z,99951.12
2018-09-21T00:31:00.035Z,99954.63
2018-09-21T00:31:31.167Z,99949.31
2018-09-21T00:32:02.272Z,99950.13
2018-09-21T00:32:33.431Z,99954.09
2018-09-21T00:33:04.533Z,99953.34
2018-09-21T00:33:35.700Z,99953.89
2018-09-21T00:34:06.799Z,99951.36
2018-09-21T00:34:37.914Z,99952.30
2018-09-21T00:35:09.105Z,99946.24
2018-09-21T00:35:40.282Z,99949.30
2018-09-21T00:36:11.408Z,99950.62
2018-09-21T00:36:42.524Z,99951.56
2018-09-21T00:37:13.689Z,99947.28
2018-09-21T00:37:44.790Z,99951.56
2018-09-21T00:38:15.968Z,99948.05
2018-09-21T00:38:47.092Z,99945.97
2018-09-21T00:39:18.190Z,99948.59
2018-09-21T00:39:49.360Z,99948.97
2018-09-21T00:40:20.500Z,99948.19
2018-09-21T00:40:51.660Z,99949.50
2018-09-21T00:41:22.772Z,99948.22
2018-09-21T00:41:53.932Z,99950.00
2018-09-21T00:42:25.065Z,99950.91
2018-09-21T00:42:56.225Z,99948.76
2018-09-21T00:43:27.381Z,99948.28
2018-09-21T00:43:58.609Z,99950.91
2018-09-21T00:44:29.799Z,99947.04
2018-09-21T00:45:01.022Z,99950.48
2018-09-21T00:45:32.244Z,99946.06
2018-09-21T00:46:03.373Z,99945.56
2018-09-21T00:46:34.493Z,99939.00
2018-09-21T00:47:05.616Z,99945.97
2018-09-21T00:47:36.781Z,99946.00
2018-09-21T00:48:07.958Z,99941.16
2018-09-21T00:48:39.062Z,99947.28
2018-09-21T00:49:10.167Z,99948.19
2018-09-21T00:49:41.275Z,99945.25
2018-09-21T00:50:12.461Z,99942.26
2018-09-21T00:50:43.621Z,99943.16
2018-09-21T00:51:14.797Z,99943.58
2018-09-21T00:51:45.957Z,99938.42
2018-09-21T00:52:17.084Z,99939.73
2018-09-21T00:52:48.187Z,99937.92
2018-09-21T00:53:19.366Z,99941.86
2018-09-21T00:53:50.505Z,99937.85
2018-09-21T00:54:21.616Z,99940.48
2018-09-21T00:54:52.791Z,99939.23
2018-09-21T00:55:23.909Z,99933.17
2018-09-21T00:55:55.113Z,99939.80
2018-09-21T00:56:26.235Z,99938.92
2018-09-21T00:56:57.334Z,99932.42
2018-09-21T00:57:28.426Z,99935.59
2018-09-21T00:57:59.646Z,99936.49
2018-09-21T00:58:30.771Z,99936.93
2018-09-21T00:59:01.903Z,99935.61
2018-09-21T00:59:33.012Z,99931.25
2018-09-21T01:00:04.169Z,99932.09
2018-09-21T01:00:35.298Z,99933.80
2018-09-21T01:01:06.435Z,99933.40
2018-09-21T01:01:37.553Z,99934.20
2018-09-21T01:02:08.646Z,99928.96
2018-09-21T01:02:39.755Z,99936.36
2018-09-21T01:03:10.870Z,99932.90
2018-09-21T01:03:42.039Z,99932.09
2018-09-21T01:04:13.205Z,99928.69
2018-09-21T01:04:44.346Z,99931.81
2018-09-21T01:05:15.466Z,99932.37
2018-09-21T01:05:46.594Z,99927.13
2018-09-21T01:06:17.748Z,99926.38
2018-09-21T01:06:48.913Z,99931.13
2018-09-21T01:07:20.077Z,99933.56
2018-09-21T01:07:51.241Z,99931.81
2018-09-21T01:08:22.356Z,99932.22
2018-09-21T01:08:53.538Z,99929.19
2018-09-21T01:09:24.647Z,99931.41
2018-09-21T01:09:55.746Z,99933.69
2018-09-21T01:10:26.862Z,99928.03
2018-09-21T01:10:58.020Z,99927.82
2018-09-21T01:11:29.148Z,99931.92
2018-09-21T01:12:00.283Z,99932.26
2018-09-21T01:12:31.396Z,99936.59
2018-09-21T01:13:02.499Z,99936.66
2018-09-21T01:13:33.600Z,99933.16
2018-09-21T01:14:04.704Z,99941.91
2018-09-21T01:14:35.833Z,99938.81
2018-09-21T01:15:06.941Z,99934.47
2018-09-21T01:15:38.154Z,99935.35
2018-09-21T01:16:09.333Z,99937.88
2018-09-21T01:16:40.503Z,99929.98
2018-09-21T01:17:11.660Z,99931.17
2018-09-21T01:17:42.790Z,99936.41
2018-09-21T01:18:13.896Z,99936.07
2018-09-21T01:18:45.075Z,99932.20
2018-09-21T01:19:16.206Z,99933.92
2018-09-21T01:19:47.306Z,99936.35
2018-09-21T01:20:18.402Z,99935.29
2018-09-21T01:20:49.532Z,99937.91
2018-09-21T01:21:20.649Z,99938.31
2018-09-21T01:21:51.799Z,99934.88
2018-09-21T01:22:22.901Z,99942.25
2018-09-21T01:22:54.012Z,99938.69
2018-09-21T01:23:25.141Z,99938.19
2018-09-21T01:23:56.252Z,99941.84
2018-09-21T01:24:27.430Z,99944.47
2018-09-21T01:24:58.580Z,99942.34
2018-09-21T01:25:29.716Z,99941.03
2018-09-21T01:26:00.858Z,99938.00
2018-09-21T01:26:31.994Z,99942.56
2018-09-21T01:27:03.100Z,99944.91
2018-09-21T01:27:34.212Z,99942.38
2018-09-21T01:28:05.334Z,99938.16
2018-09-21T01:28:37.344Z,99936.95
2018-09-21T01:29:08.465Z,99940.47
2018-09-21T01:29:39.601Z,99938.69
2018-09-21T01:30:10.704Z,99938.34
2018-09-21T01:30:41.857Z,99946.03
2018-09-21T01:31:13.057Z,99939.75
2018-09-21T01:31:44.198Z,99940.98
2018-09-21T01:32:15.307Z,99941.38
2018-09-21T01:32:46.455Z,99940.91
2018-09-21T01:33:17.578Z,99943.10
2018-09-21T01:33:48.706Z,99940.84
2018-09-21T01:34:19.822Z,99943.47
2018-09-21T01:34:50.995Z,99936.48
2018-09-21T01:35:22.119Z,99941.25
2018-09-21T01:35:53.222Z,99940.82
2018-09-21T01:36:24.462Z,99937.73
2018-09-21T01:36:55.572Z,99939.45
2018-09-21T01:37:26.678Z,99939.04
2018-09-21T01:37:57.824Z,99940.07
2018-09-21T01:38:28.928Z,99939.38
2018-09-21T01:39:00.040Z,99939.82
2018-09-21T01:39:31.204Z,99939.00
2018-09-21T01:40:02.322Z,99943.88
2018-09-21T01:40:33.452Z,99946.13
2018-09-21T01:41:04.547Z,99942.41
2018-09-21T01:41:35.743Z,99942.44
2018-09-21T01:42:06.913Z,99943.31
2018-09-21T01:42:38.023Z,99947.30
2018-09-21T01:43:09.131Z,99942.63
2018-09-21T01:43:40.235Z,99945.67
2018-09-21T01:44:11.369Z,99944.34
2018-09-21T01:44:42.482Z,99940.91
2018-09-21T01:45:13.599Z,99939.13
2018-09-21T01:45:44.703Z,99943.40
2018-09-21T01:46:15.812Z,99945.24
2018-09-21T01:46:46.983Z,99945.13
2018-09-21T01:47:18.207Z,99940.28
2018-09-21T01:47:49.309Z,99941.53
2018-09-21T01:48:20.461Z,99939.44
2018-09-21T01:48:51.591Z,99940.75
2018-09-21T01:49:22.708Z,99940.78
2018-09-21T01:49:53.827Z,99944.22
2018-09-21T01:50:25.002Z,99935.66
2018-09-21T01:50:56.084Z,99941.05
2018-09-21T01:51:27.192Z,99939.59
2018-09-21T01:51:58.294Z,99938.28
2018-09-21T01:52:29.501Z,99935.59
2018-09-21T01:53:00.676Z,99938.72
2018-09-21T01:53:31.861Z,99939.66
2018-09-21T01:54:03.090Z,99936.28
2018-09-21T01:54:34.243Z,99933.69
2018-09-21T01:55:05.359Z,99944.64
2018-09-21T01:55:36.516Z,99946.42
2018-09-21T01:56:07.632Z,99940.36
2018-09-21T01:56:38.728Z,99946.10
2018-09-21T01:57:09.860Z,99940.52
2018-09-21T01:57:41.055Z,99944.03
2018-09-21T01:58:12.162Z,99937.48
2018-09-21T01:58:43.285Z,99940.08
2018-09-21T01:59:14.445Z,99940.92
2018-09-21T01:59:45.594Z,99943.54
2018-09-21T02:00:16.788Z,99944.97
2018-09-21T02:00:48.001Z,99945.53
2018-09-21T02:01:19.099Z,99935.48
2018-09-21T02:01:50.222Z,99936.56
2018-09-21T02:02:21.342Z,99940.49
2018-09-21T02:02:52.479Z,99941.69
2018-09-21T02:03:23.598Z,99940.78
2018-09-21T02:03:54.719Z,99937.31
2018-09-21T02:04:25.898Z,99940.63
2018-09-21T02:04:57.050Z,99937.66
2018-09-21T02:05:28.151Z,99939.06
2018-09-21T02:05:59.265Z,99932.11
2018-09-21T02:06:30.390Z,99932.52
2018-09-21T02:07:01.508Z,99931.27
2018-09-21T02:07:32.742Z,99934.29
2018-09-21T02:08:03.911Z,99929.80
2018-09-21T02:08:35.017Z,99935.48
2018-09-21T02:09:06.203Z,99935.05
2018-09-21T02:09:37.374Z,99928.14
2018-09-21T02:10:08.475Z,99932.86
2018-09-21T02:10:39.579Z,99939.04
2018-09-21T02:11:10.740Z,99930.23
2018-09-21T02:11:41.835Z,99931.95
2018-09-21T02:12:12.951Z,99932.24
2018-09-21T02:12:44.103Z,99932.16
2018-09-21T02:13:15.226Z,99934.30
2018-09-21T02:13:46.347Z,99930.84
2018-09-21T02:14:17.453Z,99932.03
2018-09-21T02:14:48.579Z,99932.44
2018-09-21T02:15:19.757Z,99930.72
2018-09-21T02:15:50.909Z,99932.44
2018-09-21T02:16:22.032Z,99934.28
2018-09-21T02:16:53.138Z,99935.27
2018-09-21T02:17:24.249Z,99929.25
2018-09-21T02:17:55.427Z,99933.27
2018-09-21T02:18:26.540Z,99934.52
2018-09-21T02:18:57.717Z,99933.67
2018-09-21T02:19:28.856Z,99933.17
2018-09-21T02:20:00.009Z,99939.17
2018-09-21T02:20:31.200Z,99936.98
2018-09-21T02:21:02.320Z,99928.77
2018-09-21T02:21:33.419Z,99933.17
2018-09-21T02:22:04.522Z,99933.61
2018-09-21T02:22:35.681Z,99933.12
2018-09-21T02:23:06.892Z,99929.62
2018-09-21T02:23:38.040Z,99930.55
2018-09-21T02:24:09.213Z,99933.12
2018-09-21T02:24:40.324Z,99935.67
2018-09-21T02:25:11.440Z,99932.16
2018-09-21T02:25:42.613Z,99928.62
2018-09-21T02:26:13.732Z,99934.66
2018-09-21T02:26:44.835Z,99932.50
2018-09-21T02:27:15.977Z,99933.34
2018-09-21T02:27:47.113Z,99929.81
2018-09-21T02:28:18.219Z,99929.81
2018-09-21T02:28:49.346Z,99927.19
2018-09-21T02:29:20.456Z,99932.44
2018-09-21T02:29:51.559Z,99931.03
2018-09-21T02:30:22.665Z,99926.55
2018-09-21T02:30:53.832Z,99926.55
2018-09-21T02:31:24.932Z,99931.31
2018-09-21T02:31:56.098Z,99932.01
2018-09-21T02:32:27.191Z,99932.29
2018-09-21T02:32:58.299Z,99931.70
2018-09-21T02:33:29.430Z,99932.95
2018-09-21T02:34:00.573Z,99931.55
2018-09-21T02:34:31.671Z,99931.30
2018-09-21T02:35:02.855Z,99931.55
2018-09-21T02:35:33.966Z,99930.58
2018-09-21T02:36:05.076Z,99926.77
2018-09-21T02:36:36.206Z,99932.08
2018-09-21T02:37:07.344Z,99931.45
2018-09-21T02:37:38.449Z,99929.67
2018-09-21T02:38:09.542Z,99930.48
2018-09-21T02:38:40.722Z,99929.17
2018-09-21T02:39:11.834Z,99930.14
2018-09-21T02:39:43.057Z,99929.80
2018-09-21T02:40:14.267Z,99929.39
2018-09-21T02:40:45.438Z,99929.02
2018-09-21T02:41:16.616Z,99929.08
2018-09-21T02:41:47.728Z,99931.23
2018-09-21T02:42:18.848Z,99933.16
2018-09-21T02:42:49.958Z,99930.20
2018-09-21T02:43:21.117Z,99928.48
2018-09-21T02:43:52.247Z,99923.80
2018-09-21T02:44:23.392Z,99927.10
2018-09-21T02:44:54.511Z,99923.66
2018-09-21T02:45:25.731Z,99928.41
2018-09-21T02:45:56.857Z,99926.28
2018-09-21T02:46:27.988Z,99927.72
2018-09-21T02:46:59.100Z,99922.98
2018-09-21T02:47:30.211Z,99929.41
2018-09-21T02:48:01.360Z,99928.97
2018-09-21T02:48:32.534Z,99925.03
2018-09-21T02:49:03.703Z,99934.66
2018-09-21T02:49:34.879Z,99929.12
2018-09-21T02:50:05.995Z,99925.25
2018-09-21T02:50:37.169Z,99929.19
2018-09-21T02:51:08.280Z,99933.95
2018-09-21T02:51:39.390Z,99927.05
2018-09-21T02:52:10.568Z,99932.30
2018-09-21T02:52:41.741Z,99931.80
2018-09-21T02:53:12.896Z,99936.98
2018-09-21T02:53:44.068Z,99931.68
2018-09-21T02:54:15.158Z,99930.91
2018-09-21T02:54:46.308Z,99931.34
2018-09-21T02:55:17.455Z,99929.25
2018-09-21T02:55:48.609Z,99932.36
2018-09-21T02:56:19.772Z,99924.97
2018-09-21T02:56:50.933Z,99930.70
2018-09-21T02:57:22.141Z,99932.98
2018-09-21T02:57:53.255Z,99932.57
2018-09-21T02:58:24.414Z,99933.06
2018-09-21T02:58:55.529Z,99931.41
2018-09-21T02:59:26.638Z,99929.69
2018-09-21T02:59:57.804Z,99930.16
2018-09-21T03:00:29.005Z,99932.78
2018-09-21T03:01:00.111Z,99934.09
2018-09-21T03:01:31.257Z,99935.40
2018-09-21T03:02:02.362Z,99932.72
2018-09-21T03:02:33.562Z,99934.00
2018-09-21T03:03:04.731Z,99932.69
2018-09-21T03:03:35.847Z,99935.31
2018-09-21T03:04:06.948Z,99933.13
2018-09-21T03:04:38.048Z,99928.78
2018-09-21T03:05:09.191Z,99927.94
2018-09-21T03:05:40.388Z,99936.23
2018-09-21T03:06:11.537Z,99928.91
2018-09-21T03:06:42.760Z,99936.30
2018-09-21T03:07:13.916Z,99930.16
2018-09-21T03:07:45.060Z,99930.22
2018-09-21T03:08:16.198Z,99933.68
2018-09-21T03:08:47.342Z,99929.81
2018-09-21T03:09:18.508Z,99932.08
2018-09-21T03:09:49.622Z,99927.34
2018-09-21T03:10:20.728Z,99934.30
2018-09-21T03:10:51.920Z,99929.55
2018-09-21T03:11:23.116Z,99927.39
2018-09-21T03:11:54.305Z,99934.44
2018-09-21T03:12:25.432Z,99926.70
2018-09-21T03:12:56.602Z,99931.09
2018-09-21T03:13:27.774Z,99932.00
2018-09-21T03:13:58.890Z,99932.90
2018-09-21T03:14:30.017Z,99933.33
2018-09-21T03:15:01.135Z,99933.86
2018-09-21T03:15:32.301Z,99930.89
2018-09-21T03:16:03.533Z,99931.33
2018-09-21T03:16:34.679Z,99930.48
2018-09-21T03:17:05.792Z,99932.61
2018-09-21T03:17:36.910Z,99935.11
2018-09-21T03:18:08.067Z,99936.42
2018-09-21T03:18:39.203Z,99935.52
2018-09-21T03:19:10.318Z,99932.90
2018-09-21T03:19:41.422Z,99931.59
2018-09-21T03:20:12.567Z,99932.95
2018-09-21T03:20:43.682Z,99934.70
2018-09-21T03:21:14.779Z,99935.95
2018-09-21T03:21:45.903Z,99934.64
2018-09-21T03:22:17.014Z,99935.46
2018-09-21T03:22:48.147Z,99936.77
2018-09-21T03:23:19.257Z,99931.53
2018-09-21T03:23:50.477Z,99935.81
2018-09-21T03:24:21.625Z,99938.84
2018-09-21T03:24:52.731Z,99939.66
2018-09-21T03:25:23.893Z,99938.84
2018-09-21T03:25:55.000Z,99930.56
2018-09-21T03:26:26.212Z,99934.09
2018-09-21T03:26:57.320Z,99933.80
2018-09-21T03:27:28.455Z,99930.77
2018-09-21T03:27:59.616Z,99934.27
2018-09-21T03:28:30.739Z,99934.70
2018-09-21T03:29:01.837Z,99932.14
2018-09-21T03:29:32.956Z,99930.02
2018-09-21T03:30:04.077Z,99932.75
2018-09-21T03:30:35.188Z,99931.85
2018-09-21T03:31:06.384Z,99929.61
2018-09-21T03:31:37.491Z,99933.59
2018-09-21T03:32:08.628Z,99932.34
2018-09-21T03:32:39.807Z,99931.03
2018-09-21T03:33:10.958Z,99928.41
2018-09-21T03:33:42.064Z,99925.38
2018-09-21T03:34:13.202Z,99925.38
2018-09-21T03:34:44.303Z,99924.95
2018-09-21T03:35:15.424Z,99930.56
2018-09-21T03:35:46.599Z,99928.91
2018-09-21T03:36:17.774Z,99933.25
2018-09-21T03:36:48.879Z,99924.02
2018-09-21T03:37:20.023Z,99930.07
2018-09-21T03:37:51.164Z,99934.84
2018-09-21T03:38:22.332Z,99931.30
2018-09-21T03:38:53.451Z,99936.48
2018-09-21T03:39:24.631Z,99936.07
2018-09-21T03:39:55.743Z,99929.58
2018-09-21T03:40:26.905Z,99932.63
2018-09-21T03:40:58.084Z,99934.91
2018-09-21T03:41:29.233Z,99933.25
2018-09-21T03:42:00.328Z,99934.96
2018-09-21T03:42:31.420Z,99933.71
2018-09-21T03:43:02.556Z,99931.09
2018-09-21T03:43:33.670Z,99933.30
2018-09-21T03:44:04.777Z,99935.45
2018-09-21T03:44:35.922Z,99931.99
2018-09-21T03:45:07.068Z,99932.89
2018-09-21T03:45:38.174Z,99938.08
2018-09-21T03:46:09.298Z,99933.30
2018-09-21T03:46:40.512Z,99931.09
2018-09-21T03:47:11.618Z,99928.47
2018-09-21T03:47:42.739Z,99933.71
2018-09-21T03:48:13.871Z,99931.58
2018-09-21T03:48:45.064Z,99931.23
2018-09-21T03:49:16.187Z,99930.39
2018-09-21T03:49:47.306Z,99933.85
2018-09-21T03:50:18.423Z,99926.46
2018-09-21T03:50:49.551Z,99930.39
2018-09-21T03:51:20.739Z,99927.77
2018-09-21T03:51:51.881Z,99924.69
2018-09-21T03:52:23.011Z,99923.44
2018-09-21T03:52:54.200Z,99932.48
2018-09-21T03:53:25.317Z,99928.47
2018-09-21T03:53:56.459Z,99927.66
2018-09-21T03:54:27.555Z,99931.99
2018-09-21T03:54:58.650Z,99927.66
2018-09-21T03:55:29.775Z,99928.06
2018-09-21T03:56:01.001Z,99927.22
2018-09-21T03:56:32.118Z,99931.09
2018-09-21T03:57:03.309Z,99928.00
2018-09-21T03:57:34.403Z,99879.70
2018-09-21T03:58:05.503Z,99927.92
2018-09-21T03:58:36.606Z,99926.55
2018-09-21T03:59:07.719Z,99933.16
2018-09-21T03:59:38.878Z,99926.05
2018-09-21T04:00:10.088Z,99930.34
2018-09-21T04:00:41.208Z,99927.66
2018-09-21T04:01:12.416Z,99932.00
2018-09-21T04:01:43.759Z,99925.45
2018-09-21T04:02:14.862Z,99930.69
2018-09-21T04:02:45.964Z,99922.77
2018-09-21T04:03:17.130Z,99928.41
2018-09-21T04:03:48.355Z,99928.36
2018-09-21T04:04:19.482Z,99928.77
2018-09-21T04:04:50.662Z,99930.08
2018-09-21T04:05:21.769Z,99926.02
2018-09-21T04:05:52.865Z,99928.64
2018-09-21T04:06:24.045Z,99928.23
2018-09-21T04:06:55.197Z,99932.98
2018-09-21T04:07:26.326Z,99930.28
2018-09-21T04:07:57.471Z,99934.58
2018-09-21T04:08:28.604Z,99936.02
2018-09-21T04:08:59.731Z,99935.11
2018-09-21T04:09:30.889Z,99932.49
2018-09-21T04:10:02.002Z,99934.23
2018-09-21T04:10:33.184Z,99927.80
2018-09-21T04:11:04.302Z,99927.89
2018-09-21T04:11:35.402Z,99931.81
2018-09-21T04:12:06.580Z,99935.38
2018-09-21T04:12:37.744Z,99936.71
2018-09-21T04:13:08.859Z,99939.86
2018-09-21T04:13:39.959Z,99935.58
2018-09-21T04:14:11.071Z,99934.82
2018-09-21T04:14:42.270Z,99942.33
2018-09-21T04:15:13.448Z,99939.73
2018-09-21T04:15:44.563Z,99933.30
2018-09-21T04:16:15.684Z,99939.94
2018-09-21T04:16:46.867Z,99937.78
2018-09-21T04:17:18.059Z,99936.94
2018-09-21T04:17:49.217Z,99942.55
2018-09-21T04:18:20.320Z,99947.30
2018-09-21T04:18:51.423Z,99941.57
2018-09-21T04:19:22.582Z,99944.54
2018-09-21T04:19:53.752Z,99941.78
2018-09-21T04:20:24.941Z,99943.27
2018-09-21T04:20:56.080Z,99938.58
2018-09-21T04:21:27.178Z,99944.31
2018-09-21T04:21:58.289Z,99944.77
2018-09-21T04:22:29.458Z,99940.78
2018-09-21T04:23:00.755Z,99939.00
2018-09-21T04:23:31.801Z,99943.31
2018-09-21T04:24:02.930Z,99945.09
2018-09-21T04:24:34.070Z,99945.61
2018-09-21T04:25:05.240Z,99944.82
2018-09-21T04:25:36.359Z,99944.92
2018-09-21T04:26:07.560Z,99942.41
2018-09-21T04:26:38.678Z,99942.02
2018-09-21T04:27:09.901Z,99939.02
2018-09-21T04:27:41.016Z,99940.09
2018-09-21T04:28:12.145Z,99939.84
2018-09-21T04:28:43.268Z,99936.58
2018-09-21T04:29:14.458Z,99932.87
2018-09-21T04:29:45.564Z,99938.61
2018-09-21T04:30:16.668Z,99933.27
2018-09-21T04:30:47.876Z,99931.78
2018-09-21T04:31:19.010Z,99938.98
2018-09-21T04:31:50.122Z,99935.77
2018-09-21T04:32:21.272Z,99937.28
2018-09-21T04:32:52.468Z,99941.47
2018-09-21T04:33:23.589Z,99936.14
2018-09-21T04:33:54.683Z,99937.63
2018-09-21T04:34:25.838Z,99935.67
2018-09-21T04:34:57.003Z,99937.34
2018-09-21T04:35:28.109Z,99939.25
2018-09-21T04:35:59.292Z,99941.56
2018-09-21T04:36:30.454Z,99945.87
2018-09-21T04:37:01.589Z,99941.75
2018-09-21T04:37:32.691Z,99943.33
2018-09-21T04:38:03.789Z,99939.17
2018-09-21T04:38:34.964Z,99942.94
2018-09-21T04:39:06.182Z,99940.58
2018-09-21T04:39:37.310Z,99942.88
2018-09-21T04:40:08.490Z,99947.78
2018-09-21T04:40:39.657Z,99946.68
2018-09-21T04:41:10.807Z,99947.52
2018-09-21T04:41:41.939Z,99945.80
2018-09-21T04:42:13.064Z,99944.23
2018-09-21T04:42:44.181Z,99943.98
2018-09-21T04:43:15.345Z,99940.87
2018-09-21T04:43:46.541Z,99943.72
2018-09-21T04:44:17.728Z,99943.06
2018-09-21T04:44:48.865Z,99941.75
2018-09-21T04:45:19.996Z,99942.00
2018-09-21T04:45:51.224Z,99940.42
2018-09-21T04:46:22.340Z,99941.48
2018-09-21T04:46:53.438Z,99944.24
2018-09-21T04:47:24.553Z,99940.28
2018-09-21T04:47:55.676Z,99941.58
2018-09-21T04:48:26.794Z,99941.14
2018-09-21T04:48:57.912Z,99942.43
2018-09-21T04:49:29.068Z,99947.54
2018-09-21T04:50:00.252Z,99945.14
2018-09-21T04:50:31.391Z,99944.94
2018-09-21T04:51:02.510Z,99947.80
2018-09-21T04:51:33.620Z,99944.89
2018-09-21T04:52:04.755Z,99945.09
2018-09-21T04:52:35.900Z,99938.92
2018-09-21T04:53:07.062Z,99943.05
2018-09-21T04:53:38.172Z,99942.84
2018-09-21T04:54:09.387Z,99946.41
2018-09-21T04:54:40.516Z,99943.38
2018-09-21T04:55:11.670Z,99947.66
2018-09-21T04:55:42.876Z,99944.31
2018-09-21T04:56:14.043Z,99949.14
2018-09-21T04:56:45.169Z,99944.88
2018-09-21T04:57:16.307Z,99941.22
2018-09-21T04:57:47.577Z,99945.39
2018-09-21T04:58:18.762Z,99945.09
2018-09-21T04:58:49.894Z,99950.15
2018-09-21T04:59:21.048Z,99948.18
2018-09-21T04:59:52.170Z,99944.79
2018-09-21T05:00:23.269Z,99948.36
2018-09-21T05:00:54.431Z,99948.66
2018-09-21T05:01:25.567Z,99949.51
2018-09-21T05:01:56.672Z,99947.48
2018-09-21T05:02:27.788Z,99944.16
2018-09-21T05:02:58.988Z,99944.69
2018-09-21T05:03:30.138Z,99945.28
2018-09-21T05:04:01.267Z,99946.81
2018-09-21T05:04:32.418Z,99954.89
2018-09-21T05:05:03.544Z,99950.93
2018-09-21T05:05:34.671Z,99947.87
2018-09-21T05:06:05.771Z,99943.12
2018-09-21T05:06:36.925Z,99952.66
2018-09-21T05:07:08.037Z,99946.07
2018-09-21T05:07:39.147Z,99943.86
2018-09-21T05:08:10.261Z,99940.38
2018-09-21T05:08:41.365Z,99947.95
2018-09-21T05:09:12.467Z,99948.16
2018-09-21T05:09:43.591Z,99956.15
2018-09-21T05:10:14.810Z,99947.92
2018-09-21T05:10:46.039Z,99949.25
2018-09-21T05:11:17.208Z,99950.25
2018-09-21T05:11:48.325Z,99947.66
2018-09-21T05:12:19.427Z,99953.33
2018-09-21T05:12:50.516Z,99945.81
2018-09-21T05:13:21.688Z,99953.80
2018-09-21T05:13:52.862Z,99951.80
2018-09-21T05:14:24.001Z,99953.98
2018-09-21T05:14:55.136Z,99956.04
2018-09-21T05:15:26.235Z,99950.16
2018-09-21T05:15:57.396Z,99952.03
2018-09-21T05:16:28.512Z,99955.64
2018-09-21T05:16:59.666Z,99954.06
2018-09-21T05:17:30.759Z,99959.62
2018-09-21T05:18:01.864Z,99958.47
2018-09-21T05:18:32.987Z,99959.92
2018-09-21T05:19:04.093Z,99961.84
2018-09-21T05:19:35.245Z,99961.00
2018-09-21T05:20:06.368Z,99954.49
2018-09-21T05:20:37.487Z,99956.89
2018-09-21T05:21:08.739Z,99955.56
2018-09-21T05:21:39.875Z,99958.20
2018-09-21T05:22:10.997Z,99958.47
2018-09-21T05:22:42.104Z,99961.34
2018-09-21T05:23:13.199Z,99957.62
2018-09-21T05:23:44.374Z,99956.20
2018-09-21T05:24:15.479Z,99961.80
2018-09-21T05:24:46.600Z,99950.77
2018-09-21T05:25:17.782Z,99956.67
2018-09-21T05:25:48.934Z,99950.87
2018-09-21T05:26:20.239Z,99950.73
2018-09-21T05:26:51.404Z,99950.96
2018-09-21T05:27:22.517Z,99953.04
2018-09-21T05:27:53.614Z,99948.55
2018-09-21T05:28:24.726Z,99946.23
2018-09-21T05:28:55.865Z,99948.86
2018-09-21T05:29:27.048Z,99957.92
2018-09-21T05:29:58.158Z,99957.84
2018-09-21T05:30:29.255Z,99946.68
2018-09-21T05:31:00.399Z,99949.94
2018-09-21T05:31:31.567Z,99952.28
2018-09-21T05:32:02.752Z,99947.55
2018-09-21T05:32:33.860Z,99948.97
2018-09-21T05:33:05.046Z,99947.56
2018-09-21T05:33:36.159Z,99950.51
2018-09-21T05:34:07.325Z,99947.17
2018-09-21T05:34:38.556Z,99948.27
2018-09-21T05:35:09.799Z,99950.20
2018-09-21T05:35:40.883Z,99950.38
2018-09-21T05:36:11.996Z,99948.75
2018-09-21T05:36:43.218Z,99944.92
2018-09-21T05:37:14.432Z,99945.72
2018-09-21T05:37:45.553Z,99924.83
2018-09-21T05:38:16.736Z,99948.88
2018-09-21T05:38:47.834Z,99949.14
2018-09-21T05:39:18.979Z,99950.59
2018-09-21T05:39:50.081Z,99943.37
2018-09-21T05:40:21.195Z,99942.74
2018-09-21T05:40:52.413Z,99949.54
2018-09-21T05:41:23.524Z,99946.49
2018-09-21T05:41:54.678Z,99945.24
2018-09-21T05:42:25.813Z,99949.81
2018-09-21T05:42:56.933Z,99944.95
2018-09-21T05:43:28.095Z,99949.16
2018-09-21T05:43:59.322Z,99949.22
2018-09-21T05:44:30.510Z,99950.48
2018-09-21T05:45:01.686Z,99944.95
2018-09-21T05:45:32.809Z,99919.69
2018-09-21T05:46:03.906Z,99947.17
2018-09-21T05:46:35.032Z,99945.67
2018-09-21T05:47:06.307Z,99943.81
2018-09-21T05:47:37.390Z,99949.16
2018-09-21T05:48:08.500Z,99943.61
2018-09-21T05:48:39.650Z,99947.81
2018-09-21T05:49:10.769Z,99945.92
2018-09-21T05:49:41.900Z,99949.05
2018-09-21T05:50:13.021Z,99947.54
2018-09-21T05:50:44.188Z,99943.03
2018-09-21T05:51:15.395Z,99946.61
2018-09-21T05:51:46.494Z,99950.19
2018-09-21T05:52:17.607Z,99944.84
2018-09-21T05:52:48.783Z,99947.78
2018-09-21T05:53:19.917Z,99950.45
2018-09-21T05:53:51.033Z,99953.55
2018-09-21T05:54:22.151Z,99952.73
2018-09-21T05:54:53.262Z,99950.23
2018-09-21T05:55:24.441Z,99952.78
2018-09-21T05:55:55.539Z,99952.39
2018-09-21T05:56:26.706Z,99954.92
2018-09-21T05:56:57.848Z,99950.56
2018-09-21T05:57:29.014Z,99952.28
2018-09-21T05:58:00.146Z,99949.63
2018-09-21T05:58:31.995Z,99950.08
2018-09-21T05:59:03.130Z,99954.59
2018-09-21T05:59:34.358Z,99951.66
2018-09-21T06:00:05.579Z,99947.25
2018-09-21T06:00:36.764Z,99953.55
2018-09-21T06:01:07.909Z,99956.41
2018-09-21T06:01:39.075Z,99956.84
2018-09-21T06:02:10.240Z,99946.66
2018-09-21T06:02:42.227Z,99949.89
2018-09-21T06:03:13.331Z,99947.25
2018-09-21T06:03:44.560Z,99947.38
2018-09-21T06:04:15.739Z,99951.30
2018-09-21T06:04:46.843Z,99954.43
2018-09-21T06:05:17.967Z,99953.88
2018-09-21T06:05:49.130Z,99955.34